Time;durP1;ratioP1;P1;durP2;ratioP2;P2;SDS_P1;SDS_P2;PMS_P1;PMS_P2;Temp;Humidity;BMP_temperature;BMP_pressure;BME280_temperature;BME280_humidity;BME280_pressure;Samples;Min_cycle;Max_cycle;Signal;HPM_P1;HPM_P2
2021/08/23 03:35:58;;;;;;;16.13;11.27;;;;;;;16.46;83.05;99941.63;4987617;28;105930;-69
2021/08/23 03:38:24;;;;;;;15.23;11.90;;;;;;;16.50;83.45;99943.69;4985263;28;105867;-65
2021/08/23 03:40:49;;;;;;;14.80;12.18;;;;;;;16.55;83.37;99948.41;4983917;28;106375;-66
2021/08/23 03:43:14;;;;;;;15.15;11.10;;;;;;;16.61;83.73;99941.34;4983327;28;107284;-65
2021/08/23 03:45:40;;;;;;;17.13;11.27;;;;;;;16.69;84.10;99947.31;4984508;28;106375;-67
2021/08/23 03:48:05;;;;;;;14.88;11.43;;;;;;;16.79;83.80;99951.38;4985485;28;105951;-67
2021/08/23 03:50:31;;;;;;;14.00;10.98;;;;;;;16.87;83.84;99941.16;4984634;28;106047;-65
2021/08/23 03:52:56;;;;;;;16.85;11.63;;;;;;;16.97;83.94;99947.97;4984588;28;105840;-66
2021/08/23 03:55:22;;;;;;;12.98;10.93;;;;;;;17.02;83.68;99946.28;4982858;28;106458;-67
2021/08/23 03:57:47;;;;;;;13.10;11.63;;;;;;;17.07;83.94;99948.28;4985674;28;105907;-67
2021/08/23 04:00:13;;;;;;;13.88;11.63;;;;;;;17.13;83.85;99950.13;4984959;28;106121;-67
2021/08/23 04:02:38;;;;;;;15.07;11.07;;;;;;;17.20;83.81;99948.19;4983287;28;107799;-67
2021/08/23 04:05:04;;;;;;;14.27;10.75;;;;;;;17.24;83.69;99957.47;4984288;28;106248;-67
2021/08/23 04:07:29;;;;;;;13.52;10.32;;;;;;;17.27;83.64;99952.72;4984875;28;106296;-66
2021/08/23 04:09:55;;;;;;;14.85;11.20;;;;;;;17.30;83.59;99954.97;4984129;28;106849;-66
2021/08/23 04:12:21;;;;;;;16.00;9.88;;;;;;;17.32;83.48;99969.00;4983564;28;106016;-66
2021/08/23 04:14:46;;;;;;;13.45;10.55;;;;;;;17.33;83.72;99955.34;4984031;28;106034;-66
2021/08/23 04:17:12;;;;;;;12.75;10.27;;;;;;;17.36;83.65;99956.75;4984331;28;105841;-66
2021/08/23 04:19:37;;;;;;;13.55;10.40;;;;;;;17.40;83.54;99957.97;4984291;28;106386;-66
2021/08/23 04:22:03;;;;;;;16.55;10.40;;;;;;;17.42;83.56;99948.63;4983715;28;105817;-66
2021/08/23 04:24:28;;;;;;;14.35;10.00;;;;;;;17.45;83.61;99952.75;4984111;28;105729;-67
2021/08/23 04:26:53;;;;;;;10.75;9.57;;;;;;;17.47;83.72;99958.75;4984468;28;105803;-67
2021/08/23 04:29:19;;;;;;;12.05;10.30;;;;;;;17.50;83.68;99957.47;4984877;28;106124;-67
2021/08/23 04:31:44;;;;;;;12.90;10.38;;;;;;;17.49;83.39;99962.03;4983772;28;106169;-66
2021/08/23 04:34:10;;;;;;;15.70;10.48;;;;;;;17.50;83.57;99974.44;4983109;28;106303;-66
2021/08/23 04:36:37;;;;;;;13.88;10.60;;;;;;;17.46;83.26;99970.56;4984766;28;105964;-66
2021/08/23 04:39:04;;;;;;;14.60;10.98;;;;;;;17.43;83.06;99971.00;4982762;28;106124;-66
2021/08/23 04:41:38;;;;;;;13.48;10.20;;;;;;;17.42;83.58;99963.97;4982696;28;106007;-68
2021/08/23 04:44:04;;;;;;;14.90;10.70;;;;;;;17.42;83.46;99967.47;4941904;27;106430;-67
2021/08/23 04:46:29;;;;;;;12.77;10.73;;;;;;;17.43;83.66;99977.19;4956517;28;105955;-67
2021/08/23 04:48:55;;;;;;;13.65;11.10;;;;;;;17.42;83.47;99972.84;4951142;28;106286;-67
2021/08/23 04:51:20;;;;;;;15.10;11.77;;;;;;;17.40;83.24;99968.72;4950910;28;106078;-69
2021/08/23 04:53:45;;;;;;;15.20;12.15;;;;;;;17.36;83.27;99964.81;4950690;28;107797;-69
2021/08/23 04:56:11;;;;;;;15.93;11.98;;;;;;;17.36;83.59;99972.91;4951552;28;106059;-69
2021/08/23 04:58:36;;;;;;;15.43;11.95;;;;;;;17.36;83.57;99973.75;4941301;28;106109;-66
2021/08/23 05:01:02;;;;;;;14.90;11.60;;;;;;;17.36;83.54;99972.91;4928551;28;106001;-67
2021/08/23 05:03:27;;;;;;;13.25;11.20;;;;;;;17.34;83.72;99970.44;4930962;28;106179;-68
2021/08/23 05:05:53;;;;;;;16.13;11.77;;;;;;;17.33;83.78;99967.97;4931683;28;105867;-66
2021/08/23 05:08:19;;;;;;;17.63;12.00;;;;;;;17.33;83.87;99971.50;4931163;28;105704;-67
2021/08/23 05:10:44;;;;;;;15.15;12.70;;;;;;;17.32;83.68;99983.31;4930761;28;106424;-66
2021/08/23 05:13:10;;;;;;;13.13;10.63;;;;;;;17.33;84.06;99973.34;4930539;28;106050;-66
2021/08/23 05:15:35;;;;;;;11.85;9.80;;;;;;;17.35;84.13;99976.66;4935649;28;106161;-66
2021/08/23 05:18:00;;;;;;;11.85;9.63;;;;;;;17.40;84.06;99982.19;4951599;28;106282;-67
2021/08/23 05:20:25;;;;;;;11.68;9.07;;;;;;;17.38;83.96;99982.41;4950962;28;108536;-66
2021/08/23 05:22:51;;;;;;;9.73;8.63;;;;;;;17.37;83.91;99979.94;4950635;28;106660;-66
2021/08/23 05:25:16;;;;;;;11.60;8.30;;;;;;;17.36;84.13;99989.06;4951798;28;106426;-66
2021/08/23 05:27:42;;;;;;;9.75;7.97;;;;;;;17.36;83.95;99984.53;4950661;28;106567;-67
2021/08/23 05:30:08;;;;;;;8.40;7.30;;;;;;;17.33;83.83;99984.13;4950581;28;106091;-68
2021/08/23 05:32:33;;;;;;;8.95;6.65;;;;;;;17.31;83.74;99976.28;4950504;28;105967;-67
2021/08/23 05:34:58;;;;;;;8.88;6.47;;;;;;;17.32;83.96;99977.09;4951050;28;106407;-67
2021/08/23 05:37:24;;;;;;;8.07;6.30;;;;;;;17.33;84.00;99986.81;4950941;28;106345;-67
2021/08/23 05:39:49;;;;;;;6.85;5.45;;;;;;;17.33;83.84;99998.44;4950762;28;105915;-66
2021/08/23 05:42:15;;;;;;;6.88;6.13;;;;;;;17.32;83.82;99990.53;4948885;28;107136;-67
2021/08/23 05:44:41;;;;;;;6.88;6.15;;;;;;;17.34;83.94;99986.59;4951526;28;105697;-67
2021/08/23 05:47:06;;;;;;;6.93;6.15;;;;;;;17.34;83.90;99985.78;4950868;28;106138;-67
2021/08/23 05:49:32;;;;;;;9.50;6.18;;;;;;;17.34;84.12;99991.97;4950531;28;105944;-67
2021/08/23 05:51:58;;;;;;;8.70;6.47;;;;;;;17.34;83.66;99994.66;4950301;28;106279;-68
2021/08/23 05:54:24;;;;;;;8.13;6.50;;;;;;;17.31;83.89;99991.59;4950813;28;106499;-67
2021/08/23 05:56:49;;;;;;;10.40;6.10;;;;;;;17.31;83.97;99992.44;4949920;28;105900;-66
2021/08/23 05:59:14;;;;;;;7.85;5.75;;;;;;;17.32;83.73;99982.47;4949028;28;106299;-66
2021/08/23 06:01:40;;;;;;;7.25;5.78;;;;;;;17.32;83.89;99982.47;4949829;28;106031;-66
2021/08/23 06:04:05;;;;;;;8.40;6.30;;;;;;;17.31;83.76;99987.03;4950837;28;106084;-67
2021/08/23 06:06:32;;;;;;;9.77;6.55;;;;;;;17.31;84.00;99981.66;4950344;28;105879;-68
2021/08/23 06:08:58;;;;;;;9.35;6.78;;;;;;;17.33;83.95;99978.75;4949664;28;106074;-66
2021/08/23 06:11:23;;;;;;;10.82;6.32;;;;;;;17.33;83.78;99989.50;4949531;28;106063;-67
2021/08/23 06:13:48;;;;;;;9.13;6.18;;;;;;;17.28;83.46;99990.19;4947213;28;105897;-66
2021/08/23 06:16:14;;;;;;;10.32;8.75;;;;;;;17.28;83.65;99981.25;4939334;28;106236;-67
2021/08/23 06:18:39;;;;;;;9.18;6.60;;;;;;;17.27;83.58;99982.31;4940620;28;112128;-66
2021/08/23 06:21:04;;;;;;;9.65;6.63;;;;;;;17.25;83.49;99988.75;4930271;28;106330;-66
2021/08/23 06:23:30;;;;;;;8.85;6.78;;;;;;;17.24;83.58;99991.66;4950727;28;105761;-66
2021/08/23 06:25:55;;;;;;;9.55;6.72;;;;;;;17.23;83.76;100006.97;4950129;28;106551;-66
2021/08/23 06:28:22;;;;;;;9.10;7.18;;;;;;;17.19;83.54;99997.69;4940545;28;114674;-66
2021/08/23 06:30:47;;;;;;;10.10;7.30;;;;;;;17.22;83.62;100001.81;4933652;28;106036;-67
2021/08/23 06:33:13;;;;;;;10.35;7.43;;;;;;;17.22;83.63;100013.41;4947697;28;106468;-67
2021/08/23 06:35:40;;;;;;;9.90;7.60;;;;;;;17.20;83.43;100012.78;4949802;28;105904;-68
2021/08/23 06:38:05;;;;;;;12.57;8.52;;;;;;;17.17;83.51;100015.94;4949670;28;107843;-68
2021/08/23 06:40:31;;;;;;;10.68;7.82;;;;;;;17.18;83.31;100017.59;4949705;28;106067;-67
2021/08/23 06:42:56;;;;;;;10.25;7.32;;;;;;;17.22;83.49;100026.88;4950216;28;106120;-69
2021/08/23 06:45:21;;;;;;;10.18;7.70;;;;;;;17.25;83.34;100025.63;4949453;28;106602;-68
2021/08/23 06:47:47;;;;;;;10.40;7.55;;;;;;;17.28;83.39;100027.03;4949450;28;105992;-69
2021/08/23 06:50:12;;;;;;;10.43;8.40;;;;;;;17.32;83.25;100020.16;4949556;28;105863;-64
2021/08/23 06:52:39;;;;;;;11.07;8.68;;;;;;;17.39;83.28;100020.94;4950368;28;105972;-67
2021/08/23 06:55:05;;;;;;;10.13;7.57;;;;;;;17.46;83.39;100024.41;4949502;28;106219;-66
2021/08/23 06:57:31;;;;;;;10.75;8.25;;;;;;;17.49;82.67;100023.97;4946665;28;105886;-66
2021/08/23 06:59:56;;;;;;;12.50;7.50;;;;;;;17.53;83.14;100030.56;4948966;28;105980;-67
2021/08/23 07:02:21;;;;;;;11.10;7.18;;;;;;;17.56;82.65;100026.59;4948343;28;105922;-68
2021/08/23 07:04:49;;;;;;;12.48;7.80;;;;;;;17.57;82.79;100029.06;4949327;28;105936;-68
2021/08/23 07:07:16;;;;;;;9.90;7.43;;;;;;;17.61;82.85;100042.94;4948929;28;107156;-69
2021/08/23 07:09:41;;;;;;;12.10;7.78;;;;;;;17.64;82.76;100041.66;4948446;28;106317;-69
2021/08/23 07:12:07;;;;;;;11.02;8.15;;;;;;;17.66;82.47;100039.56;4949892;28;106209;-67
2021/08/23 07:14:32;;;;;;;10.60;7.40;;;;;;;17.71;82.62;100039.72;4948776;28;106224;-66
2021/08/23 07:16:57;;;;;;;14.38;8.10;;;;;;;17.82;82.61;100036.31;4948595;28;106172;-66
2021/08/23 07:19:23;;;;;;;10.27;7.13;;;;;;;18.02;82.51;100029.94;4948843;28;106090;-67
2021/08/23 07:21:48;;;;;;;10.73;6.85;;;;;;;18.35;83.24;100024.16;4949917;28;106038;-66
2021/08/23 07:24:13;;;;;;;9.57;6.38;;;;;;;18.74;82.83;100021.19;4948982;28;106215;-67
2021/08/23 07:26:39;;;;;;;12.02;6.95;;;;;;;19.15;82.62;100016.91;4948696;28;105976;-67
2021/08/23 07:29:04;;;;;;;10.32;6.97;;;;;;;19.34;81.51;100027.63;4948726;28;106056;-66
2021/08/23 07:31:29;;;;;;;12.48;6.97;;;;;;;19.48;80.71;100025.53;4949206;28;105833;-67
2021/08/23 07:33:55;;;;;;;9.73;5.97;;;;;;;19.54;80.71;100032.72;4948273;28;106154;-67
2021/08/23 07:36:20;;;;;;;9.30;5.97;;;;;;;19.47;79.58;100038.22;4948296;28;105915;-67
2021/08/23 07:38:45;;;;;;;8.63;5.78;;;;;;;19.48;79.46;100036.34;4947945;28;114291;-68
2021/08/23 07:41:11;;;;;;;7.40;5.13;;;;;;;19.39;79.01;100035.84;4949115;28;105909;-67
2021/08/23 07:43:36;;;;;;;7.95;5.20;;;;;;;19.39;79.53;100033.16;4948620;28;106237;-68
2021/08/23 07:46:02;;;;;;;7.80;5.60;;;;;;;19.42;79.27;100044.34;4948136;28;105971;-67
2021/08/23 07:48:27;;;;;;;7.05;5.22;;;;;;;19.50;79.26;100029.66;4947801;28;106569;-67
2021/08/23 07:50:52;;;;;;;8.75;4.75;;;;;;;19.65;79.24;100037.28;4948788;28;106530;-67
2021/08/23 07:53:18;;;;;;;8.43;5.28;;;;;;;19.75;78.45;100036.69;4948030;28;106247;-68
2021/08/23 07:55:43;;;;;;;8.00;5.25;;;;;;;19.76;78.58;100041.06;4947806;28;106913;-67
2021/08/23 07:58:10;;;;;;;9.35;4.63;;;;;;;19.87;78.57;100040.25;4948134;28;105988;-67
2021/08/23 08:00:35;;;;;;;6.20;4.15;;;;;;;19.97;78.30;100041.56;4949028;28;106011;-68
2021/08/23 08:03:01;;;;;;;8.32;4.93;;;;;;;20.02;77.74;100037.09;4944510;28;106138;-68
2021/08/23 08:05:26;;;;;;;7.03;5.20;;;;;;;20.10;77.88;100033.19;4948017;28;106008;-69
2021/08/23 08:07:51;;;;;;;7.03;4.38;;;;;;;20.19;77.71;100037.19;4935870;28;106078;-66
2021/08/23 08:10:17;;;;;;;6.63;4.40;;;;;;;20.20;77.66;100033.44;4939123;28;105932;-67
2021/08/23 08:12:43;;;;;;;6.85;4.30;;;;;;;20.21;77.06;100032.34;4944316;28;106076;-68
2021/08/23 08:15:09;;;;;;;6.80;4.68;;;;;;;20.37;77.14;100040.81;4947684;28;106270;-67
2021/08/23 08:17:35;;;;;;;6.95;4.50;;;;;;;20.58;77.06;100036.63;4947443;28;106125;-70
2021/08/23 08:20:01;;;;;;;7.00;3.53;;;;;;;20.92;76.01;100045.69;4948724;28;106049;-66
2021/08/23 08:22:26;;;;;;;5.00;3.40;;;;;;;21.04;75.74;100042.13;4948014;28;105930;-67
2021/08/23 08:24:51;;;;;;;6.40;3.50;;;;;;;21.22;75.50;100044.59;4931584;28;106380;-69
2021/08/23 08:27:16;;;;;;;5.13;3.25;;;;;;;21.31;74.78;100039.63;4931545;28;105828;-68
2021/08/23 08:29:42;;;;;;;4.30;2.70;;;;;;;21.29;74.71;100045.25;4936424;28;106161;-68
2021/08/23 08:32:07;;;;;;;3.90;2.60;;;;;;;21.22;73.40;100041.09;4934770;28;105971;-74
2021/08/23 08:34:33;;;;;;;4.10;2.60;;;;;;;21.28;73.68;100042.78;4939666;28;107239;-70
2021/08/23 08:36:59;;;;;;;4.30;2.70;;;;;;;21.49;73.02;100052.09;4949959;28;106054;-67
2021/08/23 08:39:25;;;;;;;4.90;2.60;;;;;;;21.67;72.39;100047.53;4951608;28;105864;-66
2021/08/23 08:41:50;;;;;;;4.15;2.78;;;;;;;21.96;73.26;100054.47;4951415;28;105939;-66
2021/08/23 08:44:16;;;;;;;4.20;2.40;;;;;;;22.15;72.36;100056.91;4950911;28;106717;-66
2021/08/23 08:46:42;;;;;;;6.00;2.97;;;;;;;22.35;71.37;100055.56;4950920;28;106146;-66
2021/08/23 08:49:11;;;;;;;6.28;2.17;;;;;;;22.58;70.84;100060.75;4951757;28;106581;-66
2021/08/23 08:51:39;;;;;;;2.40;1.60;;;;;;;22.41;69.39;100060.00;4951243;28;106136;-66
2021/08/23 08:54:05;;;;;;;3.50;1.75;;;;;;;22.20;68.82;100054.28;4951268;28;105982;-65
2021/08/23 08:56:32;;;;;;;4.15;1.83;;;;;;;22.28;68.73;100063.84;4950828;28;106125;-66
2021/08/23 08:58:58;;;;;;;3.28;2.03;;;;;;;22.29;68.06;100063.63;4951897;28;105915;-68
2021/08/23 09:01:23;;;;;;;2.85;1.80;;;;;;;22.40;67.19;100061.06;4950797;28;106281;-67
2021/08/23 09:03:48;;;;;;;3.10;1.85;;;;;;;23.23;67.96;100058.19;4950909;28;106615;-66
2021/08/23 09:06:14;;;;;;;2.55;1.60;;;;;;;24.59;67.57;100059.63;4950340;28;106517;-66
2021/08/23 09:08:41;;;;;;;2.47;1.27;;;;;;;25.98;64.65;100050.78;4951260;28;106123;-68
2021/08/23 09:11:16;;;;;;;2.90;1.58;;;;;;;26.46;60.00;100059.41;4947023;28;106459;-66
2021/08/23 09:13:57;;;;;;;1.98;1.55;;;;;;;26.62;59.67;100060.13;4946592;28;105939;-67
2021/08/23 09:16:27;;;;;;;2.65;1.52;;;;;;;26.92;56.23;100052.91;4949866;28;106195;-66
2021/08/23 09:18:52;;;;;;;3.90;2.00;;;;;;;25.77;55.92;100044.56;4951293;28;105763;-66
2021/08/23 09:21:27;;;;;;;3.40;1.60;;;;;;;24.67;57.31;100053.72;4950567;28;105879;-67
2021/08/23 09:23:53;;;;;;;2.17;1.48;;;;;;;24.11;58.56;100048.81;4950237;28;106808;-67
2021/08/23 09:26:19;;;;;;;2.67;1.48;;;;;;;23.81;59.10;100044.78;4948303;28;105940;-67
2021/08/23 09:28:57;;;;;;;1.95;1.50;;;;;;;23.78;59.59;100045.31;4951310;28;105852;-67
2021/08/23 09:31:30;;;;;;;2.85;1.80;;;;;;;24.05;59.73;100041.69;4950593;28;106209;-66
2021/08/23 09:34:00;;;;;;;2.75;1.80;;;;;;;24.17;59.84;100047.75;4949600;28;106267;-67
2021/08/23 09:36:25;;;;;;;2.55;1.63;;;;;;;24.50;59.91;100050.34;4950041;28;106356;-67
2021/08/23 09:39:06;;;;;;;2.60;1.70;;;;;;;24.50;57.34;100050.34;4949359;28;105799;-67
2021/08/23 09:41:33;;;;;;;2.42;1.70;;;;;;;24.63;57.11;100058.06;4936253;28;106160;-67
2021/08/23 09:44:03;;;;;;;2.45;1.60;;;;;;;25.08;56.98;100054.88;4932164;28;106774;-66
2021/08/23 09:46:32;;;;;;;4.10;1.67;;;;;;;27.21;57.67;100060.34;4938580;28;106014;-66
2021/08/23 09:48:59;;;;;;;2.40;1.35;;;;;;;30.29;52.86;100057.38;4931211;28;106040;-68
2021/08/23 09:51:29;;;;;;;2.60;1.60;;;;;;;30.46;48.39;100058.72;4930704;28;106256;-66
2021/08/23 09:54:08;;;;;;;3.03;2.13;;;;;;;32.88;46.38;100060.78;4930444;28;105882;-66
2021/08/23 09:56:38;;;;;;;4.47;1.53;;;;;;;32.40;41.96;100055.00;4929067;28;106266;-66
2021/08/23 09:59:05;;;;;;;3.65;1.65;;;;;;;31.13;41.03;100060.00;4930920;28;106021;-68
2021/08/23 10:01:33;;;;;;;4.05;1.75;;;;;;;30.50;42.03;100054.22;4930964;28;105912;-68
2021/08/23 10:04:04;;;;;;;3.88;1.67;;;;;;;30.34;42.44;100056.44;4930546;28;106394;-71
2021/08/23 10:06:33;;;;;;;8.05;1.80;;;;;;;30.06;42.02;100050.97;4930146;28;105954;-66
2021/08/23 10:09:00;;;;;;;2.55;1.50;;;;;;;29.50;41.17;100055.53;4931147;28;106246;-67
2021/08/23 10:11:27;;;;;;;2.67;1.60;;;;;;;28.62;41.92;100050.47;4930123;28;106266;-67
2021/08/23 10:13:53;;;;;;;3.22;1.60;;;;;;;28.11;43.83;100057.41;4929850;28;106807;-67
2021/08/23 10:16:19;;;;;;;2.65;1.55;;;;;;;28.55;44.60;100048.09;4929482;28;106071;-66
2021/08/23 10:18:45;;;;;;;3.55;1.50;;;;;;;28.47;43.44;100060.53;4930753;28;105902;-67
2021/08/23 10:21:11;;;;;;;2.85;1.60;;;;;;;27.90;42.83;100054.03;4938359;28;106697;-67
2021/08/23 10:23:37;;;;;;;2.35;1.50;;;;;;;28.04;43.87;100055.03;4948370;28;106082;-65
2021/08/23 10:26:03;;;;;;;4.82;1.60;;;;;;;28.33;42.81;100059.63;4949178;28;106113;-65
2021/08/23 10:28:38;;;;;;;2.40;1.52;;;;;;;28.79;43.26;100066.47;4949833;28;106000;-69
2021/08/23 10:31:08;;;;;;;4.38;1.42;;;;;;;28.98;41.87;100067.28;4949283;28;105914;-71
2021/08/23 10:33:35;;;;;;;;;;;;;;;28.86;41.71;100069.66;4949824;28;106115;-67
2021/08/23 10:36:01;;;;;;;8.68;1.65;;;;;;;28.41;41.64;100061.69;4949336;28;105940;-68
2021/08/23 10:38:27;;;;;;;2.97;1.95;;;;;;;27.74;41.81;100065.13;4949811;28;106496;-72
2021/08/23 10:41:09;;;;;;;4.45;2.08;;;;;;;27.21;43.01;100071.28;4949156;28;106098;-69
2021/08/23 10:44:04;;;;;;;3.40;1.83;;;;;;;26.40;44.09;100073.34;4947010;28;106217;-73
2021/08/23 10:46:33;;;;;;;3.30;2.42;;;;;;;25.94;45.44;100072.34;4947615;28;106122;-66
2021/08/23 10:49:04;;;;;;;4.90;2.00;;;;;;;25.61;46.19;100071.81;4949476;28;105943;-66
2021/08/23 10:51:36;;;;;;;3.95;1.90;;;;;;;25.24;46.45;100069.34;4949393;28;105780;-65
2021/08/23 10:54:21;;;;;;;2.75;1.67;;;;;;;24.78;46.56;100065.47;4948544;28;107390;-67
2021/08/23 10:56:51;;;;;;;2.88;1.85;;;;;;;24.52;47.69;100058.25;4948950;28;105848;-66
2021/08/23 10:59:19;;;;;;;2.53;1.77;;;;;;;24.29;48.15;100063.88;4949921;28;105868;-65
2021/08/23 11:01:57;;;;;;;2.97;2.15;;;;;;;24.11;48.72;100059.69;4948777;28;106337;-65
2021/08/23 11:04:38;;;;;;;3.22;2.20;;;;;;;24.02;49.81;100060.44;4948412;28;106752;-65
2021/08/23 11:07:06;;;;;;;5.80;2.47;;;;;;;24.03;50.11;100062.91;4946853;28;106490;-64
2021/08/23 11:09:43;;;;;;;3.45;2.00;;;;;;;24.03;50.71;100071.06;4948863;28;106097;-67
2021/08/23 11:12:17;;;;;;;3.10;2.17;;;;;;;24.01;50.71;100059.63;4948334;28;106234;-65
2021/08/23 11:14:50;;;;;;;3.67;2.60;;;;;;;23.90;51.13;100060.66;4947700;28;106003;-70
2021/08/23 11:17:27;;;;;;;6.07;2.50;;;;;;;23.74;50.93;100059.69;4948447;28;105931;-66
2021/08/23 11:19:53;;;;;;;3.78;2.10;;;;;;;23.58;51.71;100054.16;4947102;28;105898;-69
2021/08/23 11:22:18;;;;;;;3.20;2.42;;;;;;;23.46;51.99;100058.94;4948713;28;105797;-68
2021/08/23 11:24:43;;;;;;;3.58;2.55;;;;;;;23.42;52.28;100058.63;4948490;28;106127;-65
2021/08/23 11:27:09;;;;;;;4.18;2.50;;;;;;;23.42;52.52;100058.63;4948532;28;105827;-64
2021/08/23 11:29:38;;;;;;;3.85;2.70;;;;;;;23.43;52.90;100054.03;4949089;28;105900;-72
2021/08/23 11:32:07;;;;;;;3.88;2.25;;;;;;;23.46;52.41;100056.22;4948904;28;105978;-67
2021/08/23 11:34:33;;;;;;;4.43;2.35;;;;;;;23.46;52.83;100056.22;4947699;28;106688;-68
2021/08/23 11:37:08;;;;;;;5.60;2.80;;;;;;;23.51;53.17;100050.00;4947835;28;106029;-69
2021/08/23 11:39:35;;;;;;;3.83;2.58;;;;;;;23.61;53.13;100052.81;4948326;28;106063;-64
2021/08/23 11:42:06;;;;;;;5.15;2.90;;;;;;;23.78;53.09;100053.47;4947943;28;106136;-65
2021/08/23 11:44:33;;;;;;;5.03;2.55;;;;;;;24.01;52.91;100054.19;4947906;28;106354;-64
2021/08/23 11:47:03;;;;;;;5.80;2.20;;;;;;;24.23;52.39;100056.75;4947976;28;106411;-64
2021/08/23 11:49:32;;;;;;;5.70;2.60;;;;;;;24.31;52.09;100058.16;4949090;28;106064;-64
2021/08/23 11:51:58;;;;;;;5.00;2.17;;;;;;;24.31;51.87;100048.06;4948351;28;106284;-64
2021/08/23 11:54:24;;;;;;;4.00;2.42;;;;;;;24.39;51.85;100046.75;4948268;28;105922;-64
2021/08/23 11:56:49;;;;;;;3.72;2.42;;;;;;;24.49;51.90;100041.38;4950000;28;105833;-65
2021/08/23 11:59:15;;;;;;;3.33;2.40;;;;;;;24.77;51.67;100033.03;4952603;28;105791;-65
2021/08/23 12:01:40;;;;;;;4.65;2.67;;;;;;;25.14;51.42;100034.72;4952159;28;106116;-65
2021/08/23 12:04:06;;;;;;;6.43;2.40;;;;;;;25.67;50.87;100035.28;4951904;28;106113;-64
2021/08/23 12:06:35;;;;;;;4.68;2.38;;;;;;;25.89;49.28;100036.88;4951513;28;105927;-65
2021/08/23 12:09:02;;;;;;;5.60;2.10;;;;;;;25.85;48.88;100024.91;4950604;28;106146;-65
2021/08/23 12:11:40;;;;;;;2.80;1.95;;;;;;;25.84;47.90;100028.72;4949612;28;105983;-64
2021/08/23 12:14:19;;;;;;;2.88;2.15;;;;;;;25.68;48.26;100033.38;4949086;28;105939;-64
2021/08/23 12:16:45;;;;;;;3.75;2.03;;;;;;;25.54;47.91;100018.66;4949003;28;106552;-65
2021/08/23 12:19:12;;;;;;;2.90;1.80;;;;;;;25.30;48.28;100028.19;4949919;28;106452;-65
2021/08/23 12:21:39;;;;;;;3.58;2.25;;;;;;;25.22;48.06;100025.19;4949118;28;106291;-66
2021/08/23 12:24:13;;;;;;;3.30;2.03;;;;;;;25.32;48.34;100034.19;4948274;28;106042;-65
2021/08/23 12:26:52;;;;;;;2.85;1.92;;;;;;;25.35;48.10;100027.41;4950490;28;106032;-65
2021/08/23 12:29:25;;;;;;;2.70;1.77;;;;;;;25.14;48.16;100029.28;4952030;28;106005;-65
2021/08/23 12:32:20;;;;;;;4.88;2.05;;;;;;;25.18;48.72;100031.19;4951121;28;106204;-65
2021/08/23 12:34:48;;;;;;;2.33;1.75;;;;;;;25.59;49.23;100024.09;4945352;28;106134;-62
2021/08/23 12:37:14;;;;;;;3.78;2.08;;;;;;;26.01;48.08;100029.22;4951069;28;106231;-64
2021/08/23 12:39:44;;;;;;;4.25;2.22;;;;;;;26.37;47.53;100028.31;4950519;28;105928;-63
2021/08/23 12:42:10;;;;;;;4.00;2.10;;;;;;;26.93;46.98;100032.66;4950303;28;106193;-62
2021/08/23 12:44:36;;;;;;;5.03;2.40;;;;;;;27.00;45.78;100027.69;4950804;28;106007;-62
2021/08/23 12:47:02;;;;;;;3.13;1.98;;;;;;;26.81;45.54;100030.28;4948020;28;106519;-63
2021/08/23 12:49:27;;;;;;;5.80;2.20;;;;;;;26.32;45.49;100028.31;4951735;28;105939;-63
2021/08/23 12:51:53;;;;;;;5.20;2.10;;;;;;;25.89;46.18;100025.97;4951393;28;106241;-62
2021/08/23 12:54:20;;;;;;;2.78;2.00;;;;;;;25.50;46.83;100023.84;4950879;28;106058;-63
2021/08/23 12:56:46;;;;;;;5.40;2.08;;;;;;;25.41;47.68;100031.78;4950249;28;106180;-65
2021/08/23 12:59:11;;;;;;;3.85;2.50;;;;;;;25.26;47.98;100042.63;4951651;28;105692;-61
2021/08/23 13:01:37;;;;;;;4.30;2.10;;;;;;;25.17;47.99;100031.44;4951035;28;105942;-62
2021/08/23 13:04:06;;;;;;;3.97;2.60;;;;;;;25.01;48.25;100033.34;4950973;28;105957;-64
2021/08/23 13:06:32;;;;;;;4.87;2.67;;;;;;;24.89;48.87;100022.72;4950178;28;106080;-62
2021/08/23 13:08:58;;;;;;;3.92;2.75;;;;;;;24.86;49.24;100025.94;4951995;28;105951;-63
2021/08/23 13:11:23;;;;;;;4.85;2.20;;;;;;;24.87;49.18;100030.31;4950823;28;106142;-63
2021/08/23 13:13:49;;;;;;;3.03;2.05;;;;;;;24.77;49.06;100030.31;4950567;28;105916;-64
2021/08/23 13:16:14;;;;;;;3.90;2.20;;;;;;;24.67;49.01;100026.47;4950379;28;106015;-63
2021/08/23 13:18:40;;;;;;;5.28;2.30;;;;;;;24.60;49.18;100027.78;4951355;28;106482;-63
2021/08/23 13:21:07;;;;;;;3.58;2.08;;;;;;;24.53;49.38;100032.66;4950567;28;106196;-63
2021/08/23 13:23:33;;;;;;;3.28;2.25;;;;;;;24.55;49.62;100030.47;4950114;28;106086;-63
2021/08/23 13:25:58;;;;;;;3.70;2.03;;;;;;;24.55;49.84;100025.88;4950475;28;106017;-63
2021/08/23 13:28:24;;;;;;;7.40;2.55;;;;;;;24.54;49.66;100034.31;4951406;28;106075;-63
2021/08/23 13:30:49;;;;;;;2.75;1.98;;;;;;;24.56;49.97;100027.47;4950458;28;105859;-63
2021/08/23 13:33:14;;;;;;;3.22;2.38;;;;;;;24.52;49.69;100031.81;4950145;28;106030;-62
2021/08/23 13:35:42;;;;;;;2.97;2.10;;;;;;;24.45;49.40;100032.09;4949622;28;106426;-63
2021/08/23 13:38:10;;;;;;;3.20;2.33;;;;;;;24.32;49.59;100038.84;4950793;28;105979;-63
2021/08/23 13:40:38;;;;;;;3.85;2.40;;;;;;;24.21;49.53;100029.00;4949983;28;106242;-63
2021/08/23 13:43:14;;;;;;;5.22;2.70;;;;;;;24.15;49.92;100033.59;4949867;28;105799;-62
2021/08/23 13:45:42;;;;;;;3.67;2.30;;;;;;;24.10;49.92;100032.75;4950226;28;106383;-63
2021/08/23 13:48:11;;;;;;;3.33;2.30;;;;;;;23.99;50.28;100024.53;4950707;28;106014;-63
2021/08/23 13:50:37;;;;;;;4.00;2.30;;;;;;;23.88;50.66;100033.72;4950187;28;106130;-64
2021/08/23 13:53:03;;;;;;;4.72;2.33;;;;;;;23.77;50.66;100032.81;4950453;28;105824;-64
2021/08/23 13:55:29;;;;;;;6.35;3.30;;;;;;;23.68;50.72;100025.41;4949586;28;107652;-62
2021/08/23 13:57:54;;;;;;;3.78;2.72;;;;;;;23.59;50.90;100038.63;4950902;28;106172;-63
2021/08/23 14:00:20;;;;;;;4.00;2.55;;;;;;;23.49;51.17;100031.22;4949915;28;106232;-62
2021/08/23 14:02:46;;;;;;;3.10;2.05;;;;;;;23.46;51.58;100029.03;4949893;28;105848;-64
2021/08/23 14:05:11;;;;;;;3.83;2.20;;;;;;;23.43;51.69;100029.56;4949161;28;106855;-62
2021/08/23 14:07:37;;;;;;;3.65;2.53;;;;;;;23.35;51.77;100030.00;4950048;28;106245;-62
2021/08/23 14:10:04;;;;;;;4.82;2.47;;;;;;;23.24;51.73;100027.22;4943911;28;106228;-62
2021/08/23 14:12:29;;;;;;;8.40;3.28;;;;;;;23.21;52.27;100026.91;4936558;28;107455;-62
